createdAt,value
2019-01-23T00:03:09.349Z,65.51
2019-01-23T00:09:15.287Z,65.26
2019-01-23T00:15:21.364Z,65.34
2019-01-23T00:21:27.117Z,65.14
2019-01-23T00:27:32.959Z,65.03
2019-01-23T00:33:38.876Z,64.65
2019-01-23T00:39:44.621Z,64.78
2019-01-23T00:45:50.429Z,64.42
2019-01-23T00:51:56.161Z,64.50
2019-01-23T00:58:01.993Z,64.57
2019-01-23T01:04:08.114Z,64.47
2019-01-23T01:10:15.603Z,64.35
2019-01-23T01:16:21.372Z,64.64
2019-01-23T01:22:27.757Z,64.32
2019-01-23T01:28:33.626Z,63.99
2019-01-23T01:34:39.548Z,64.04
2019-01-23T01:40:45.388Z,63.87
2019-01-23T01:46:51.347Z,63.80
2019-01-23T01:52:57.074Z,63.63
2019-01-23T01:59:03.146Z,63.40
2019-01-23T02:05:09.551Z,63.52
2019-01-23T02:11:15.572Z,63.06
2019-01-23T02:17:21.378Z,63.16
2019-01-23T02:23:27.248Z,62.99
2019-01-23T02:29:33.334Z,63.06
2019-01-23T02:35:39.166Z,62.79
2019-01-23T02:41:45.049Z,62.63
2019-01-23T02:47:51.091Z,62.53
2019-01-23T02:53:57.092Z,62.35
2019-01-23T03:00:02.946Z,62.27
2019-01-23T03:06:08.920Z,61.99
2019-01-23T03:12:14.633Z,61.65
2019-01-23T03:18:20.463Z,61.50
2019-01-23T03:24:26.221Z,61.55
2019-01-23T03:30:32.175Z,61.40
2019-01-23T03:36:40.254Z,61.48
2019-01-23T03:42:45.991Z,61.85
2019-01-23T03:48:51.701Z,61.48
2019-01-23T03:54:57.623Z,61.24
2019-01-23T04:01:03.395Z,60.97
2019-01-23T04:07:09.312Z,61.03
2019-01-23T04:13:19.254Z,61.15
2019-01-23T04:19:25.034Z,61.19
2019-01-23T04:25:31.051Z,61.36
2019-01-23T04:31:36.870Z,61.47
2019-01-23T04:37:42.872Z,61.23
2019-01-23T04:43:48.894Z,61.15
2019-01-23T04:49:54.630Z,61.12
2019-01-23T04:56:00.331Z,61.31
2019-01-23T05:02:06.233Z,61.44
2019-01-23T05:08:12.013Z,61.33
2019-01-23T05:14:17.800Z,61.29
2019-01-23T05:20:23.640Z,61.45
2019-01-23T05:26:29.616Z,61.49
2019-01-23T05:32:35.656Z,61.68
2019-01-23T05:38:41.573Z,61.65
2019-01-23T05:44:47.841Z,61.91
2019-01-23T05:50:53.628Z,62.23
2019-01-23T05:56:59.376Z,62.30
2019-01-23T06:03:05.203Z,62.48
2019-01-23T06:09:11.939Z,62.65
2019-01-23T06:15:17.992Z,62.55
2019-01-23T06:21:23.702Z,62.32
2019-01-23T06:27:29.424Z,62.33
2019-01-23T06:33:35.333Z,62.43
2019-01-23T06:39:41.403Z,62.30
2019-01-23T06:45:47.514Z,62.16
2019-01-23T06:51:56.004Z,62.15
2019-01-23T06:58:01.964Z,62.30
2019-01-23T07:04:07.677Z,62.43
2019-01-23T07:10:17.838Z,62.33
2019-01-23T07:16:23.673Z,62.47
2019-01-23T07:22:29.930Z,62.63
2019-01-23T07:28:37.933Z,62.91
2019-01-23T07:34:43.739Z,63.11
2019-01-23T07:40:49.503Z,63.07
2019-01-23T07:46:55.464Z,62.97
2019-01-23T07:53:01.178Z,63.01
2019-01-23T07:59:07.020Z,62.78
2019-01-23T08:05:19.434Z,62.77
2019-01-23T08:11:21.747Z,62.54
2019-01-23T08:17:32.713Z,62.79
2019-01-23T08:23:35.477Z,62.51
2019-01-23T08:29:41.297Z,62.36
2019-01-23T08:35:47.108Z,62.03
2019-01-23T08:41:57.999Z,61.44
2019-01-23T08:48:03.704Z,61.01
2019-01-23T08:54:12.039Z,60.58
2019-01-23T09:00:18.133Z,60.14
2019-01-23T09:06:24.227Z,59.99
2019-01-23T09:12:30.138Z,59.60
2019-01-23T09:18:35.874Z,58.88
2019-01-23T09:24:43.467Z,59.04
2019-01-23T09:31:14.952Z,58.98
2019-01-23T09:38:01.622Z,59.34
2019-01-23T09:45:01.566Z,59.30
2019-01-23T09:52:21.423Z,59.23
2019-01-23T09:58:27.159Z,59.68
2019-01-23T10:04:35.964Z,59.30
2019-01-23T10:10:41.769Z,58.52
2019-01-23T10:16:47.805Z,58.46
2019-01-23T10:22:53.934Z,58.20
2019-01-23T10:28:59.795Z,58.03
2019-01-23T10:35:07.347Z,58.12
2019-01-23T10:41:13.158Z,57.94
2019-01-23T10:47:19.086Z,57.69
2019-01-23T10:53:26.622Z,57.26
2019-01-23T10:59:35.018Z,56.85
2019-01-23T11:05:41.064Z,56.89
2019-01-23T11:11:49.387Z,56.42
2019-01-23T11:17:55.127Z,56.62
2019-01-23T11:24:01.662Z,56.11
2019-01-23T11:30:15.381Z,56.03
2019-01-23T11:36:21.148Z,55.68
2019-01-23T11:42:27.262Z,55.76
2019-01-23T11:48:33.050Z,55.71
2019-01-23T11:54:38.773Z,55.56
2019-01-23T12:00:44.643Z,54.68
2019-01-23T12:06:50.422Z,54.32
2019-01-23T12:12:56.221Z,55.08
2019-01-23T12:19:03.838Z,54.10
2019-01-23T12:25:12.726Z,54.29
2019-01-23T12:31:18.370Z,54.66
2019-01-23T12:37:24.141Z,55.29
2019-01-23T12:43:29.848Z,54.68
2019-01-23T12:49:35.598Z,54.69
2019-01-23T12:55:41.372Z,54.51
2019-01-23T13:01:47.177Z,54.63
2019-01-23T13:07:53.377Z,54.65
2019-01-23T13:13:59.251Z,54.64
2019-01-23T13:20:06.839Z,54.09
2019-01-23T13:26:12.696Z,53.10
2019-01-23T13:32:21.041Z,52.55
2019-01-23T13:38:28.386Z,53.65
2019-01-23T13:44:34.119Z,54.07
2019-01-23T13:50:40.023Z,53.71
2019-01-23T13:56:46.242Z,53.51
2019-01-23T14:02:52.060Z,54.12
2019-01-23T14:08:57.831Z,54.14
2019-01-23T14:15:09.923Z,54.25
2019-01-23T14:21:15.907Z,53.90
2019-01-23T14:27:21.686Z,53.96
2019-01-23T14:33:27.844Z,54.01
2019-01-23T14:39:33.741Z,53.92
2019-01-23T14:45:39.561Z,54.07
2019-01-23T14:51:45.241Z,54.23
2019-01-23T14:57:51.045Z,53.72
2019-01-23T15:04:00.952Z,53.94
2019-01-23T15:10:14.042Z,53.66
2019-01-23T15:16:20.216Z,53.55
2019-01-23T15:22:27.601Z,53.39
2019-01-23T15:28:33.359Z,53.69
2019-01-23T15:34:39.295Z,53.81
2019-01-23T15:40:45.342Z,53.72
2019-01-23T15:46:51.032Z,53.95
2019-01-23T15:52:59.835Z,54.17
2019-01-23T15:59:05.785Z,54.69
2019-01-23T16:05:11.952Z,54.62
2019-01-23T16:11:17.966Z,54.63
2019-01-23T16:17:23.787Z,54.50
2019-01-23T16:23:29.724Z,54.20
2019-01-23T16:29:35.481Z,53.82
2019-01-23T16:35:41.634Z,53.54
2019-01-23T16:41:47.698Z,53.28
2019-01-23T16:47:53.527Z,54.18
2019-01-23T16:53:59.966Z,54.16
2019-01-23T17:00:08.196Z,54.56
2019-01-23T17:06:14.194Z,54.33
2019-01-23T17:12:19.902Z,54.63
2019-01-23T17:18:25.699Z,54.78
2019-01-23T17:24:31.433Z,54.56
2019-01-23T17:30:37.234Z,54.72
2019-01-23T17:36:45.030Z,54.57
2019-01-23T17:42:53.946Z,54.48
2019-01-23T17:48:59.914Z,54.33
2019-01-23T17:55:08.489Z,54.83
2019-01-23T18:01:14.312Z,54.55
2019-01-23T18:07:20.810Z,54.49
2019-01-23T18:13:26.698Z,54.66
2019-01-23T18:19:32.758Z,54.35
2019-01-23T18:25:38.607Z,54.25
2019-01-23T18:31:56.049Z,54.58
2019-01-23T18:38:31.335Z,54.15
2019-01-23T18:45:19.282Z,54.29
2019-01-23T18:52:05.329Z,53.85
2019-01-23T18:58:17.736Z,54.00
2019-01-23T19:04:25.512Z,53.82
2019-01-23T19:10:31.485Z,53.94
2019-01-23T19:16:40.411Z,53.91
2019-01-23T19:22:46.377Z,53.84
2019-01-23T19:28:52.426Z,53.94
2019-01-23T19:34:58.355Z,54.42
2019-01-23T19:41:04.994Z,54.55
2019-01-23T19:47:11.693Z,54.64
2019-01-23T19:53:17.582Z,54.53
2019-01-23T19:59:23.547Z,54.40
2019-01-23T20:05:34.603Z,54.11
2019-01-23T20:11:40.898Z,54.34
2019-01-23T20:17:46.932Z,54.34
2019-01-23T20:23:53.482Z,54.02
2019-01-23T20:30:03.165Z,54.44
2019-01-23T20:36:09.014Z,54.35
2019-01-23T20:42:14.855Z,54.55
2019-01-23T20:48:20.778Z,54.67
2019-01-23T20:54:26.549Z,54.83
2019-01-23T21:00:35.455Z,55.11
2019-01-23T21:06:44.950Z,55.27
2019-01-23T21:12:50.720Z,55.01
2019-01-23T21:18:58.080Z,54.93
2019-01-23T21:25:04.105Z,55.11
2019-01-23T21:31:09.955Z,55.16
2019-01-23T21:37:16.328Z,55.48
2019-01-23T21:43:22.203Z,55.20
2019-01-23T21:49:28.304Z,55.17
2019-01-23T21:55:34.354Z,55.30
2019-01-23T22:01:40.355Z,55.43
2019-01-23T22:07:46.369Z,55.29
2019-01-23T22:13:52.155Z,55.65
2019-01-23T22:19:58.266Z,55.40
2019-01-23T22:26:04.454Z,55.40
2019-01-23T22:32:10.676Z,55.47
2019-01-23T22:38:16.632Z,55.43
2019-01-23T22:44:22.565Z,55.63
2019-01-23T22:50:29.698Z,55.53
2019-01-23T22:56:35.531Z,55.93
2019-01-23T23:02:41.601Z,55.99
2019-01-23T23:08:47.899Z,55.87
2019-01-23T23:14:53.749Z,55.90
2019-01-23T23:20:59.854Z,55.84
2019-01-23T23:27:06.103Z,55.86
2019-01-23T23:33:12.038Z,56.17
2019-01-23T23:39:18.112Z,56.32
2019-01-23T23:45:24.131Z,56.19
2019-01-23T23:51:29.938Z,56.38
2019-01-23T23:57:37.596Z,56.28
